sensor_id;sensor_type;location;lat;lon;timestamp;P1;P2;P0
63969;PMS5003;50156;37.772;-122.432;2022-12-15T00:01:40;8;8;
63969;PMS5003;50156;37.772;-122.432;2022-12-15T00:04:10;7;5;
63969;PMS5003;50156;37.772;-122.432;2022-12-15T00:06:39;4;4;
63969;PMS5003;50156;37.772;-122.432;2022-12-15T00:09:08;5;5;
63969;PMS5003;50156;37.772;-122.432;2022-12-15T00:11:36;6;6;
63969;PMS5003;50156;37.772;-122.432;2022-12-15T00:14:05;6;5;
63969;PMS5003;50156;37.772;-122.432;2022-12-15T00:16:34;7;7;
63969;PMS5003;50156;37.772;-122.432;2022-12-15T00:19:03;6;6;
63969;PMS5003;50156;37.772;-122.432;2022-12-15T00:21:31;7;6;
63969;PMS5003;50156;37.772;-122.432;2022-12-15T00:23:59;7;7;
63969;PMS5003;50156;37.772;-122.432;2022-12-15T00:26:28;6;6;
63969;PMS5003;50156;37.772;-122.432;2022-12-15T00:28:56;7;6;
63969;PMS5003;50156;37.772;-122.432;2022-12-15T00:31:25;6;6;
63969;PMS5003;50156;37.772;-122.432;2022-12-15T00:33:54;6;6;
63969;PMS5003;50156;37.772;-122.432;2022-12-15T00:36:23;8;8;
63969;PMS5003;50156;37.772;-122.432;2022-12-15T00:38:52;7;5;
63969;PMS5003;50156;37.772;-122.432;2022-12-15T00:41:21;6;6;
63969;PMS5003;50156;37.772;-122.432;2022-12-15T00:43:49;10;8;
63969;PMS5003;50156;37.772;-122.432;2022-12-15T00:46:18;15;13;
63969;PMS5003;50156;37.772;-122.432;2022-12-15T00:48:47;7;7;
63969;PMS5003;50156;37.772;-122.432;2022-12-15T00:51:17;7;7;
63969;PMS5003;50156;37.772;-122.432;2022-12-15T00:53:46;8;8;
63969;PMS5003;50156;37.772;-122.432;2022-12-15T00:56:16;10;10;
63969;PMS5003;50156;37.772;-122.432;2022-12-15T00:58:45;11;9;
63969;PMS5003;50156;37.772;-122.432;2022-12-15T01:01:13;10;10;
63969;PMS5003;50156;37.772;-122.432;2022-12-15T01:03:42;13;13;
63969;PMS5003;50156;37.772;-122.432;2022-12-15T01:06:10;12;10;
63969;PMS5003;50156;37.772;-122.432;2022-12-15T01:08:40;10;10;
63969;PMS5003;50156;37.772;-122.432;2022-12-15T01:11:09;9;8;
63969;PMS5003;50156;37.772;-122.432;2022-12-15T01:13:38;15;15;
63969;PMS5003;50156;37.772;-122.432;2022-12-15T01:16:09;10;8;
63969;PMS5003;50156;37.772;-122.432;2022-12-15T01:18:38;8;8;
63969;PMS5003;50156;37.772;-122.432;2022-12-15T01:21:08;8;7;
63969;PMS5003;50156;37.772;-122.432;2022-12-15T01:23:38;10;8;
63969;PMS5003;50156;37.772;-122.432;2022-12-15T01:26:06;8;8;
63969;PMS5003;50156;37.772;-122.432;2022-12-15T01:28:35;10;9;
63969;PMS5003;50156;37.772;-122.432;2022-12-15T01:31:08;16;16;
63969;PMS5003;50156;37.772;-122.432;2022-12-15T01:33:37;19;17;
63969;PMS5003;50156;37.772;-122.432;2022-12-15T01:36:08;17;17;
63969;PMS5003;50156;37.772;-122.432;2022-12-15T01:38:37;16;16;
63969;PMS5003;50156;37.772;-122.432;2022-12-15T01:41:08;19;16;
63969;PMS5003;50156;37.772;-122.432;2022-12-15T01:43:38;22;20;
63969;PMS5003;50156;37.772;-122.432;2022-12-15T01:46:08;21;21;
63969;PMS5003;50156;37.772;-122.432;2022-12-15T01:48:40;24;21;
63969;PMS5003;50156;37.772;-122.432;2022-12-15T01:51:16;19;19;
63969;PMS5003;50156;37.772;-122.432;2022-12-15T01:53:58;21;19;
63969;PMS5003;50156;37.772;-122.432;2022-12-15T01:56:32;20;20;
63969;PMS5003;50156;37.772;-122.432;2022-12-15T01:59:04;21;21;
63969;PMS5003;50156;37.772;-122.432;2022-12-15T02:01:37;26;26;
63969;PMS5003;50156;37.772;-122.432;2022-12-15T02:04:06;29;26;
63969;PMS5003;50156;37.772;-122.432;2022-12-15T02:06:35;27;24;
63969;PMS5003;50156;37.772;-122.432;2022-12-15T02:09:04;25;25;
63969;PMS5003;50156;37.772;-122.432;2022-12-15T02:12:06;25;25;
63969;PMS5003;50156;37.772;-122.432;2022-12-15T02:14:49;26;26;
63969;PMS5003;50156;37.772;-122.432;2022-12-15T02:17:29;26;25;
63969;PMS5003;50156;37.772;-122.432;2022-12-15T02:20:12;27;27;
63969;PMS5003;50156;37.772;-122.432;2022-12-15T02:22:59;32;30;
63969;PMS5003;50156;37.772;-122.432;2022-12-15T02:25:55;33;33;
63969;PMS5003;50156;37.772;-122.432;2022-12-15T02:28:39;28;26;
63969;PMS5003;50156;37.772;-122.432;2022-12-15T02:31:18;26;26;
63969;PMS5003;50156;37.772;-122.432;2022-12-15T02:33:56;29;29;
63969;PMS5003;50156;37.772;-122.432;2022-12-15T02:36:40;27;26;
63969;PMS5003;50156;37.772;-122.432;2022-12-15T02:39:13;34;34;
63969;PMS5003;50156;37.772;-122.432;2022-12-15T02:41:45;31;29;
63969;PMS5003;50156;37.772;-122.432;2022-12-15T02:44:15;30;30;
63969;PMS5003;50156;37.772;-122.432;2022-12-15T02:46:53;33;32;
63969;PMS5003;50156;37.772;-122.432;2022-12-15T02:49:34;28;28;
63969;PMS5003;50156;37.772;-122.432;2022-12-15T02:52:15;32;32;
63969;PMS5003;50156;37.772;-122.432;2022-12-15T02:54:56;33;27;
63969;PMS5003;50156;37.772;-122.432;2022-12-15T02:57:43;34;31;
63969;PMS5003;50156;37.772;-122.432;2022-12-15T03:00:20;31;31;
63969;PMS5003;50156;37.772;-122.432;2022-12-15T03:02:50;35;30;
63969;PMS5003;50156;37.772;-122.432;2022-12-15T03:05:21;26;26;
63969;PMS5003;50156;37.772;-122.432;2022-12-15T03:07:51;27;26;
63969;PMS5003;50156;37.772;-122.432;2022-12-15T03:10:21;30;30;
63969;PMS5003;50156;37.772;-122.432;2022-12-15T03:12:51;30;29;
63969;PMS5003;50156;37.772;-122.432;2022-12-15T03:15:21;30;29;
63969;PMS5003;50156;37.772;-122.432;2022-12-15T03:17:50;35;32;
63969;PMS5003;50156;37.772;-122.432;2022-12-15T03:20:18;32;29;
63969;PMS5003;50156;37.772;-122.432;2022-12-15T03:22:47;35;32;
63969;PMS5003;50156;37.772;-122.432;2022-12-15T03:25:16;34;33;
63969;PMS5003;50156;37.772;-122.432;2022-12-15T03:27:45;31;31;
63969;PMS5003;50156;37.772;-122.432;2022-12-15T03:30:13;37;34;
63969;PMS5003;50156;37.772;-122.432;2022-12-15T03:32:42;37;35;
63969;PMS5003;50156;37.772;-122.432;2022-12-15T03:35:10;35;34;
63969;PMS5003;50156;37.772;-122.432;2022-12-15T03:37:40;40;35;
63969;PMS5003;50156;37.772;-122.432;2022-12-15T03:40:09;40;39;
63969;PMS5003;50156;37.772;-122.432;2022-12-15T03:42:38;38;36;
63969;PMS5003;50156;37.772;-122.432;2022-12-15T03:45:10;35;35;
63969;PMS5003;50156;37.772;-122.432;2022-12-15T03:47:39;36;36;
63969;PMS5003;50156;37.772;-122.432;2022-12-15T03:50:08;38;36;
63969;PMS5003;50156;37.772;-122.432;2022-12-15T03:52:39;37;36;
63969;PMS5003;50156;37.772;-122.432;2022-12-15T03:55:09;36;32;
63969;PMS5003;50156;37.772;-122.432;2022-12-15T03:57:38;31;28;
63969;PMS5003;50156;37.772;-122.432;2022-12-15T04:00:09;34;33;
63969;PMS5003;50156;37.772;-122.432;2022-12-15T04:02:40;32;30;
63969;PMS5003;50156;37.772;-122.432;2022-12-15T04:05:11;24;24;
63969;PMS5003;50156;37.772;-122.432;2022-12-15T04:07:43;29;29;
63969;PMS5003;50156;37.772;-122.432;2022-12-15T04:10:11;30;28;
63969;PMS5003;50156;37.772;-122.432;2022-12-15T04:12:40;32;29;
63969;PMS5003;50156;37.772;-122.432;2022-12-15T04:15:09;29;28;
63969;PMS5003;50156;37.772;-122.432;2022-12-15T04:17:40;35;32;
63969;PMS5003;50156;37.772;-122.432;2022-12-15T04:20:09;31;30;
63969;PMS5003;50156;37.772;-122.432;2022-12-15T04:22:39;32;30;
63969;PMS5003;50156;37.772;-122.432;2022-12-15T04:25:09;35;32;
63969;PMS5003;50156;37.772;-122.432;2022-12-15T04:27:39;35;33;
63969;PMS5003;50156;37.772;-122.432;2022-12-15T04:30:08;32;28;
63969;PMS5003;50156;37.772;-122.432;2022-12-15T04:32:37;31;31;
63969;PMS5003;50156;37.772;-122.432;2022-12-15T04:35:07;33;33;
63969;PMS5003;50156;37.772;-122.432;2022-12-15T04:37:37;30;27;
63969;PMS5003;50156;37.772;-122.432;2022-12-15T04:40:06;29;29;
63969;PMS5003;50156;37.772;-122.432;2022-12-15T04:42:36;29;28;
63969;PMS5003;50156;37.772;-122.432;2022-12-15T04:45:08;31;31;
63969;PMS5003;50156;37.772;-122.432;2022-12-15T04:47:39;34;31;
63969;PMS5003;50156;37.772;-122.432;2022-12-15T04:50:07;30;28;
63969;PMS5003;50156;37.772;-122.432;2022-12-15T04:52:36;32;28;
63969;PMS5003;50156;37.772;-122.432;2022-12-15T04:55:05;32;30;
63969;PMS5003;50156;37.772;-122.432;2022-12-15T04:57:34;32;29;
63969;PMS5003;50156;37.772;-122.432;2022-12-15T05:00:02;31;31;
63969;PMS5003;50156;37.772;-122.432;2022-12-15T05:02:32;30;29;
63969;PMS5003;50156;37.772;-122.432;2022-12-15T05:05:01;31;31;
63969;PMS5003;50156;37.772;-122.432;2022-12-15T05:07:30;38;34;
63969;PMS5003;50156;37.772;-122.432;2022-12-15T05:09:59;31;29;
63969;PMS5003;50156;37.772;-122.432;2022-12-15T05:12:27;29;28;
63969;PMS5003;50156;37.772;-122.432;2022-12-15T05:14:55;32;30;
63969;PMS5003;50156;37.772;-122.432;2022-12-15T05:17:25;29;29;
63969;PMS5003;50156;37.772;-122.432;2022-12-15T05:19:54;33;31;
63969;PMS5003;50156;37.772;-122.432;2022-12-15T05:22:22;35;34;
63969;PMS5003;50156;37.772;-122.432;2022-12-15T05:24:51;36;35;
63969;PMS5003;50156;37.772;-122.432;2022-12-15T05:27:20;34;34;
63969;PMS5003;50156;37.772;-122.432;2022-12-15T05:29:48;36;34;
63969;PMS5003;50156;37.772;-122.432;2022-12-15T05:32:17;39;39;
63969;PMS5003;50156;37.772;-122.432;2022-12-15T05:34:45;39;38;
63969;PMS5003;50156;37.772;-122.432;2022-12-15T05:37:14;32;32;
63969;PMS5003;50156;37.772;-122.432;2022-12-15T05:39:43;33;31;
63969;PMS5003;50156;37.772;-122.432;2022-12-15T05:42:11;32;32;
63969;PMS5003;50156;37.772;-122.432;2022-12-15T05:44:40;29;28;
63969;PMS5003;50156;37.772;-122.432;2022-12-15T05:47:10;36;36;
63969;PMS5003;50156;37.772;-122.432;2022-12-15T05:49:39;28;28;
63969;PMS5003;50156;37.772;-122.432;2022-12-15T05:52:07;33;30;
63969;PMS5003;50156;37.772;-122.432;2022-12-15T05:54:36;30;30;
63969;PMS5003;50156;37.772;-122.432;2022-12-15T05:57:05;37;37;
63969;PMS5003;50156;37.772;-122.432;2022-12-15T05:59:33;36;33;
63969;PMS5003;50156;37.772;-122.432;2022-12-15T06:02:02;32;32;
63969;PMS5003;50156;37.772;-122.432;2022-12-15T06:04:30;37;30;
63969;PMS5003;50156;37.772;-122.432;2022-12-15T06:07:04;35;32;
63969;PMS5003;50156;37.772;-122.432;2022-12-15T06:09:32;30;29;
63969;PMS5003;50156;37.772;-122.432;2022-12-15T06:12:01;30;29;
63969;PMS5003;50156;37.772;-122.432;2022-12-15T06:14:29;31;29;
63969;PMS5003;50156;37.772;-122.432;2022-12-15T06:16:58;32;31;
63969;PMS5003;50156;37.772;-122.432;2022-12-15T06:19:26;38;36;
63969;PMS5003;50156;37.772;-122.432;2022-12-15T06:21:55;37;33;
63969;PMS5003;50156;37.772;-122.432;2022-12-15T06:24:24;30;29;
63969;PMS5003;50156;37.772;-122.432;2022-12-15T06:26:53;32;30;
63969;PMS5003;50156;37.772;-122.432;2022-12-15T06:29:21;33;33;
63969;PMS5003;50156;37.772;-122.432;2022-12-15T06:31:50;37;32;
63969;PMS5003;50156;37.772;-122.432;2022-12-15T06:34:19;30;30;
63969;PMS5003;50156;37.772;-122.432;2022-12-15T06:36:48;28;26;
63969;PMS5003;50156;37.772;-122.432;2022-12-15T06:39:16;35;33;
63969;PMS5003;50156;37.772;-122.432;2022-12-15T06:41:45;31;31;
63969;PMS5003;50156;37.772;-122.432;2022-12-15T06:44:14;29;29;
63969;PMS5003;50156;37.772;-122.432;2022-12-15T06:46:43;32;32;
63969;PMS5003;50156;37.772;-122.432;2022-12-15T06:49:12;32;28;
63969;PMS5003;50156;37.772;-122.432;2022-12-15T06:51:40;28;28;
63969;PMS5003;50156;37.772;-122.432;2022-12-15T06:54:09;31;29;
63969;PMS5003;50156;37.772;-122.432;2022-12-15T06:56:37;30;29;
63969;PMS5003;50156;37.772;-122.432;2022-12-15T06:59:06;31;29;
63969;PMS5003;50156;37.772;-122.432;2022-12-15T07:01:37;34;31;
63969;PMS5003;50156;37.772;-122.432;2022-12-15T07:04:06;31;30;
63969;PMS5003;50156;37.772;-122.432;2022-12-15T07:06:35;36;32;
63969;PMS5003;50156;37.772;-122.432;2022-12-15T07:09:06;33;29;
63969;PMS5003;50156;37.772;-122.432;2022-12-15T07:11:39;31;29;
63969;PMS5003;50156;37.772;-122.432;2022-12-15T07:14:07;38;35;
63969;PMS5003;50156;37.772;-122.432;2022-12-15T07:16:36;31;31;
63969;PMS5003;50156;37.772;-122.432;2022-12-15T07:19:05;39;35;
63969;PMS5003;50156;37.772;-122.432;2022-12-15T07:21:36;37;33;
63969;PMS5003;50156;37.772;-122.432;2022-12-15T07:24:05;41;34;
63969;PMS5003;50156;37.772;-122.432;2022-12-15T07:26:35;36;35;
63969;PMS5003;50156;37.772;-122.432;2022-12-15T07:29:04;36;34;
63969;PMS5003;50156;37.772;-122.432;2022-12-15T07:31:33;36;34;
63969;PMS5003;50156;37.772;-122.432;2022-12-15T07:34:01;35;32;
63969;PMS5003;50156;37.772;-122.432;2022-12-15T07:36:31;35;33;
63969;PMS5003;50156;37.772;-122.432;2022-12-15T07:38:59;36;35;
63969;PMS5003;50156;37.772;-122.432;2022-12-15T07:41:28;36;35;
63969;PMS5003;50156;37.772;-122.432;2022-12-15T07:43:57;34;33;
63969;PMS5003;50156;37.772;-122.432;2022-12-15T07:46:26;40;35;
63969;PMS5003;50156;37.772;-122.432;2022-12-15T07:48:55;35;32;
63969;PMS5003;50156;37.772;-122.432;2022-12-15T07:51:23;36;32;
63969;PMS5003;50156;37.772;-122.432;2022-12-15T07:53:52;41;36;
63969;PMS5003;50156;37.772;-122.432;2022-12-15T07:56:20;37;37;
63969;PMS5003;50156;37.772;-122.432;2022-12-15T07:58:49;32;30;
63969;PMS5003;50156;37.772;-122.432;2022-12-15T08:01:18;32;32;
63969;PMS5003;50156;37.772;-122.432;2022-12-15T08:03:47;32;30;
63969;PMS5003;50156;37.772;-122.432;2022-12-15T08:06:16;35;31;
63969;PMS5003;50156;37.772;-122.432;2022-12-15T08:08:44;33;32;
63969;PMS5003;50156;37.772;-122.432;2022-12-15T08:11:14;38;35;
63969;PMS5003;50156;37.772;-122.432;2022-12-15T08:13:44;32;28;
63969;PMS5003;50156;37.772;-122.432;2022-12-15T08:16:13;35;35;
63969;PMS5003;50156;37.772;-122.432;2022-12-15T08:18:41;37;33;
63969;PMS5003;50156;37.772;-122.432;2022-12-15T08:21:10;33;30;
63969;PMS5003;50156;37.772;-122.432;2022-12-15T08:23:39;37;35;
63969;PMS5003;50156;37.772;-122.432;2022-12-15T08:26:09;33;32;
63969;PMS5003;50156;37.772;-122.432;2022-12-15T08:28:39;37;36;
63969;PMS5003;50156;37.772;-122.432;2022-12-15T08:31:09;37;37;
63969;PMS5003;50156;37.772;-122.432;2022-12-15T08:33:39;34;31;
63969;PMS5003;50156;37.772;-122.432;2022-12-15T08:36:09;33;32;
63969;PMS5003;50156;37.772;-122.432;2022-12-15T08:38:40;34;33;
63969;PMS5003;50156;37.772;-122.432;2022-12-15T08:41:10;39;37;
63969;PMS5003;50156;37.772;-122.432;2022-12-15T08:43:40;39;36;
63969;PMS5003;50156;37.772;-122.432;2022-12-15T08:46:09;39;34;
63969;PMS5003;50156;37.772;-122.432;2022-12-15T08:48:38;36;36;
63969;PMS5003;50156;37.772;-122.432;2022-12-15T08:51:07;37;35;
63969;PMS5003;50156;37.772;-122.432;2022-12-15T08:53:35;40;37;
63969;PMS5003;50156;37.772;-122.432;2022-12-15T08:56:04;41;36;
63969;PMS5003;50156;37.772;-122.432;2022-12-15T08:58:34;32;32;
63969;PMS5003;50156;37.772;-122.432;2022-12-15T09:01:04;38;36;
63969;PMS5003;50156;37.772;-122.432;2022-12-15T09:03:34;36;35;
63969;PMS5003;50156;37.772;-122.432;2022-12-15T09:06:03;34;33;
63969;PMS5003;50156;37.772;-122.432;2022-12-15T09:08:34;37;37;
63969;PMS5003;50156;37.772;-122.432;2022-12-15T09:11:02;36;34;
63969;PMS5003;50156;37.772;-122.432;2022-12-15T09:13:31;35;33;
63969;PMS5003;50156;37.772;-122.432;2022-12-15T09:16:01;35;32;
63969;PMS5003;50156;37.772;-122.432;2022-12-15T09:18:32;31;31;
63969;PMS5003;50156;37.772;-122.432;2022-12-15T09:21:02;37;37;
63969;PMS5003;50156;37.772;-122.432;2022-12-15T09:23:32;35;34;
63969;PMS5003;50156;37.772;-122.432;2022-12-15T09:26:02;43;40;
63969;PMS5003;50156;37.772;-122.432;2022-12-15T09:28:33;34;33;
63969;PMS5003;50156;37.772;-122.432;2022-12-15T09:31:02;39;36;
63969;PMS5003;50156;37.772;-122.432;2022-12-15T09:33:32;39;39;
63969;PMS5003;50156;37.772;-122.432;2022-12-15T09:36:01;44;39;
63969;PMS5003;50156;37.772;-122.432;2022-12-15T09:38:32;48;43;
63969;PMS5003;50156;37.772;-122.432;2022-12-15T09:41:06;40;37;
63969;PMS5003;50156;37.772;-122.432;2022-12-15T09:43:44;39;36;
63969;PMS5003;50156;37.772;-122.432;2022-12-15T09:46:20;29;29;
63969;PMS5003;50156;37.772;-122.432;2022-12-15T09:48:57;34;33;
63969;PMS5003;50156;37.772;-122.432;2022-12-15T09:51:32;36;33;
63969;PMS5003;50156;37.772;-122.432;2022-12-15T09:54:09;43;37;
63969;PMS5003;50156;37.772;-122.432;2022-12-15T09:56:40;36;33;
63969;PMS5003;50156;37.772;-122.432;2022-12-15T09:59:17;33;33;
63969;PMS5003;50156;37.772;-122.432;2022-12-15T10:01:59;39;35;
63969;PMS5003;50156;37.772;-122.432;2022-12-15T10:04:48;37;36;
63969;PMS5003;50156;37.772;-122.432;2022-12-15T10:07:26;32;31;
63969;PMS5003;50156;37.772;-122.432;2022-12-15T10:09:58;33;32;
63969;PMS5003;50156;37.772;-122.432;2022-12-15T10:12:35;35;35;
63969;PMS5003;50156;37.772;-122.432;2022-12-15T10:15:06;35;34;
63969;PMS5003;50156;37.772;-122.432;2022-12-15T10:17:45;34;34;
63969;PMS5003;50156;37.772;-122.432;2022-12-15T10:20:18;34;31;
63969;PMS5003;50156;37.772;-122.432;2022-12-15T10:22:49;30;30;
63969;PMS5003;50156;37.772;-122.432;2022-12-15T10:25:20;36;36;
63969;PMS5003;50156;37.772;-122.432;2022-12-15T10:28:11;47;40;
63969;PMS5003;50156;37.772;-122.432;2022-12-15T10:30:56;37;35;
63969;PMS5003;50156;37.772;-122.432;2022-12-15T10:33:29;39;38;
63969;PMS5003;50156;37.772;-122.432;2022-12-15T10:36:01;42;42;
63969;PMS5003;50156;37.772;-122.432;2022-12-15T10:38:35;42;39;
63969;PMS5003;50156;37.772;-122.432;2022-12-15T10:41:06;36;32;
63969;PMS5003;50156;37.772;-122.432;2022-12-15T10:43:37;44;39;
63969;PMS5003;50156;37.772;-122.432;2022-12-15T10:46:11;47;39;
63969;PMS5003;50156;37.772;-122.432;2022-12-15T10:48:42;33;31;
63969;PMS5003;50156;37.772;-122.432;2022-12-15T10:51:14;34;33;
63969;PMS5003;50156;37.772;-122.432;2022-12-15T10:53:46;35;34;
63969;PMS5003;50156;37.772;-122.432;2022-12-15T10:56:19;39;37;
63969;PMS5003;50156;37.772;-122.432;2022-12-15T10:58:51;41;38;
63969;PMS5003;50156;37.772;-122.432;2022-12-15T11:01:23;38;37;
63969;PMS5003;50156;37.772;-122.432;2022-12-15T11:03:53;41;39;
63969;PMS5003;50156;37.772;-122.432;2022-12-15T11:06:23;37;37;
63969;PMS5003;50156;37.772;-122.432;2022-12-15T11:08:54;36;35;
63969;PMS5003;50156;37.772;-122.432;2022-12-15T11:11:37;39;37;
63969;PMS5003;50156;37.772;-122.432;2022-12-15T11:14:15;41;39;
63969;PMS5003;50156;37.772;-122.432;2022-12-15T11:16:48;36;33;
63969;PMS5003;50156;37.772;-122.432;2022-12-15T11:19:23;34;33;
63969;PMS5003;50156;37.772;-122.432;2022-12-15T11:22:03;36;35;
63969;PMS5003;50156;37.772;-122.432;2022-12-15T11:24:41;33;33;
63969;PMS5003;50156;37.772;-122.432;2022-12-15T11:27:16;35;34;
63969;PMS5003;50156;37.772;-122.432;2022-12-15T11:29:52;40;37;
63969;PMS5003;50156;37.772;-122.432;2022-12-15T11:32:28;40;36;
63969;PMS5003;50156;37.772;-122.432;2022-12-15T11:35:00;36;34;
63969;PMS5003;50156;37.772;-122.432;2022-12-15T11:37:34;36;33;
63969;PMS5003;50156;37.772;-122.432;2022-12-15T11:40:12;33;32;
63969;PMS5003;50156;37.772;-122.432;2022-12-15T11:43:43;35;33;
63969;PMS5003;50156;37.772;-122.432;2022-12-15T11:46:25;30;30;
63969;PMS5003;50156;37.772;-122.432;2022-12-15T11:49:03;33;32;
63969;PMS5003;50156;37.772;-122.432;2022-12-15T11:52:02;35;35;
63969;PMS5003;50156;37.772;-122.432;2022-12-15T11:54:39;36;31;
63969;PMS5003;50156;37.772;-122.432;2022-12-15T11:57:22;39;30;
63969;PMS5003;50156;37.772;-122.432;2022-12-15T12:00:10;31;28;
63969;PMS5003;50156;37.772;-122.432;2022-12-15T12:02:47;35;33;
63969;PMS5003;50156;37.772;-122.432;2022-12-15T12:05:28;32;31;
63969;PMS5003;50156;37.772;-122.432;2022-12-15T12:08:08;33;33;
63969;PMS5003;50156;37.772;-122.432;2022-12-15T12:10:53;34;33;
63969;PMS5003;50156;37.772;-122.432;2022-12-15T12:13:31;32;28;
63969;PMS5003;50156;37.772;-122.432;2022-12-15T12:16:09;28;27;
63969;PMS5003;50156;37.772;-122.432;2022-12-15T12:18:47;28;28;
63969;PMS5003;50156;37.772;-122.432;2022-12-15T12:21:21;30;30;
63969;PMS5003;50156;37.772;-122.432;2022-12-15T12:23:56;27;27;
63969;PMS5003;50156;37.772;-122.432;2022-12-15T12:26:28;27;25;
63969;PMS5003;50156;37.772;-122.432;2022-12-15T12:29:05;26;24;
63969;PMS5003;50156;37.772;-122.432;2022-12-15T12:31:42;23;23;
63969;PMS5003;50156;37.772;-122.432;2022-12-15T12:34:23;28;27;
63969;PMS5003;50156;37.772;-122.432;2022-12-15T12:36:59;21;20;
63969;PMS5003;50156;37.772;-122.432;2022-12-15T12:39:39;23;23;
63969;PMS5003;50156;37.772;-122.432;2022-12-15T12:42:09;25;24;
63969;PMS5003;50156;37.772;-122.432;2022-12-15T12:44:46;28;25;
63969;PMS5003;50156;37.772;-122.432;2022-12-15T12:47:15;21;21;
63969;PMS5003;50156;37.772;-122.432;2022-12-15T12:49:50;28;28;
63969;PMS5003;50156;37.772;-122.432;2022-12-15T12:52:23;24;24;
63969;PMS5003;50156;37.772;-122.432;2022-12-15T12:54:55;25;24;
63969;PMS5003;50156;37.772;-122.432;2022-12-15T12:57:28;24;22;
63969;PMS5003;50156;37.772;-122.432;2022-12-15T13:00:03;25;24;
63969;PMS5003;50156;37.772;-122.432;2022-12-15T13:02:55;21;21;
63969;PMS5003;50156;37.772;-122.432;2022-12-15T13:05:46;28;23;
63969;PMS5003;50156;37.772;-122.432;2022-12-15T13:08:24;27;27;
63969;PMS5003;50156;37.772;-122.432;2022-12-15T13:11:52;28;27;
63969;PMS5003;50156;37.772;-122.432;2022-12-15T13:14:28;30;25;
63969;PMS5003;50156;37.772;-122.432;2022-12-15T13:17:03;27;27;
63969;PMS5003;50156;37.772;-122.432;2022-12-15T13:20:22;28;28;
63969;PMS5003;50156;37.772;-122.432;2022-12-15T13:22:52;29;28;
63969;PMS5003;50156;37.772;-122.432;2022-12-15T13:25:32;32;32;
63969;PMS5003;50156;37.772;-122.432;2022-12-15T13:28:15;33;30;
63969;PMS5003;50156;37.772;-122.432;2022-12-15T13:31:54;38;35;
63969;PMS5003;50156;37.772;-122.432;2022-12-15T13:34:23;36;36;
63969;PMS5003;50156;37.772;-122.432;2022-12-15T13:36:55;39;36;
63969;PMS5003;50156;37.772;-122.432;2022-12-15T13:39:31;37;37;
63969;PMS5003;50156;37.772;-122.432;2022-12-15T13:42:34;32;31;
63969;PMS5003;50156;37.772;-122.432;2022-12-15T13:45:13;33;32;
63969;PMS5003;50156;37.772;-122.432;2022-12-15T13:47:56;35;34;
63969;PMS5003;50156;37.772;-122.432;2022-12-15T13:50:29;30;30;
63969;PMS5003;50156;37.772;-122.432;2022-12-15T13:53:05;34;30;
63969;PMS5003;50156;37.772;-122.432;2022-12-15T13:55:47;35;34;
63969;PMS5003;50156;37.772;-122.432;2022-12-15T13:58:24;32;27;
63969;PMS5003;50156;37.772;-122.432;2022-12-15T14:00:57;29;27;
63969;PMS5003;50156;37.772;-122.432;2022-12-15T14:03:26;29;28;
63969;PMS5003;50156;37.772;-122.432;2022-12-15T14:05:55;28;26;
63969;PMS5003;50156;37.772;-122.432;2022-12-15T14:08:26;28;28;
63969;PMS5003;50156;37.772;-122.432;2022-12-15T14:10:57;25;24;
63969;PMS5003;50156;37.772;-122.432;2022-12-15T14:13:28;27;27;
63969;PMS5003;50156;37.772;-122.432;2022-12-15T14:16:01;27;27;
63969;PMS5003;50156;37.772;-122.432;2022-12-15T14:18:34;33;31;
63969;PMS5003;50156;37.772;-122.432;2022-12-15T14:21:05;27;25;
63969;PMS5003;50156;37.772;-122.432;2022-12-15T14:23:45;36;28;
63969;PMS5003;50156;37.772;-122.432;2022-12-15T14:26:14;32;29;
63969;PMS5003;50156;37.772;-122.432;2022-12-15T14:28:45;34;33;
63969;PMS5003;50156;37.772;-122.432;2022-12-15T14:31:25;31;30;
63969;PMS5003;50156;37.772;-122.432;2022-12-15T14:33:57;31;29;
63969;PMS5003;50156;37.772;-122.432;2022-12-15T14:36:29;34;33;
63969;PMS5003;50156;37.772;-122.432;2022-12-15T14:38:59;35;33;
63969;PMS5003;50156;37.772;-122.432;2022-12-15T14:41:32;31;31;
63969;PMS5003;50156;37.772;-122.432;2022-12-15T14:44:05;33;31;
63969;PMS5003;50156;37.772;-122.432;2022-12-15T14:46:41;29;27;
63969;PMS5003;50156;37.772;-122.432;2022-12-15T14:49:16;32;29;
63969;PMS5003;50156;37.772;-122.432;2022-12-15T14:51:48;32;30;
63969;PMS5003;50156;37.772;-122.432;2022-12-15T14:54:30;29;29;
63969;PMS5003;50156;37.772;-122.432;2022-12-15T14:57:09;35;31;
63969;PMS5003;50156;37.772;-122.432;2022-12-15T14:59:42;28;28;
63969;PMS5003;50156;37.772;-122.432;2022-12-15T15:02:16;32;29;
63969;PMS5003;50156;37.772;-122.432;2022-12-15T15:04:57;31;30;
63969;PMS5003;50156;37.772;-122.432;2022-12-15T15:07:28;27;27;
63969;PMS5003;50156;37.772;-122.432;2022-12-15T15:09:58;26;25;
63969;PMS5003;50156;37.772;-122.432;2022-12-15T15:12:38;28;27;
63969;PMS5003;50156;37.772;-122.432;2022-12-15T15:15:13;29;29;
63969;PMS5003;50156;37.772;-122.432;2022-12-15T15:17:44;30;29;
63969;PMS5003;50156;37.772;-122.432;2022-12-15T15:20:18;29;28;
63969;PMS5003;50156;37.772;-122.432;2022-12-15T15:23:02;30;29;
63969;PMS5003;50156;37.772;-122.432;2022-12-15T15:25:39;32;31;
63969;PMS5003;50156;37.772;-122.432;2022-12-15T15:28:19;28;28;
63969;PMS5003;50156;37.772;-122.432;2022-12-15T15:30:51;34;32;
63969;PMS5003;50156;37.772;-122.432;2022-12-15T15:33:21;31;29;
63969;PMS5003;50156;37.772;-122.432;2022-12-15T15:35:51;29;29;
63969;PMS5003;50156;37.772;-122.432;2022-12-15T15:38:23;30;28;
63969;PMS5003;50156;37.772;-122.432;2022-12-15T15:40:54;31;30;
63969;PMS5003;50156;37.772;-122.432;2022-12-15T15:43:25;28;28;
63969;PMS5003;50156;37.772;-122.432;2022-12-15T15:45:56;27;25;
63969;PMS5003;50156;37.772;-122.432;2022-12-15T15:48:28;27;27;
63969;PMS5003;50156;37.772;-122.432;2022-12-15T15:50:59;31;30;
63969;PMS5003;50156;37.772;-122.432;2022-12-15T15:53:29;31;31;
63969;PMS5003;50156;37.772;-122.432;2022-12-15T15:56:00;28;28;
63969;PMS5003;50156;37.772;-122.432;2022-12-15T15:58:30;28;28;
63969;PMS5003;50156;37.772;-122.432;2022-12-15T16:00:59;27;27;
63969;PMS5003;50156;37.772;-122.432;2022-12-15T16:03:28;28;28;
63969;PMS5003;50156;37.772;-122.432;2022-12-15T16:05:56;24;22;
63969;PMS5003;50156;37.772;-122.432;2022-12-15T16:08:26;26;26;